createdAt,value
2019-03-20T00:00:01.120Z,47.94
2019-03-20T00:01:01.098Z,48.77
2019-03-20T00:02:01.086Z,47.63
2019-03-20T00:03:01.073Z,48.54
2019-03-20T00:04:01.082Z,47.81
2019-03-20T00:05:01.077Z,47.50
2019-03-20T00:06:01.042Z,47.81
2019-03-20T00:07:01.032Z,46.98
2019-03-20T00:08:01.021Z,46.67
2019-03-20T00:09:01.011Z,47.19
2019-03-20T00:10:01.051Z,46.98
2019-03-20T00:11:00.990Z,47.30
2019-03-20T00:12:00.979Z,47.06
2019-03-20T00:13:00.974Z,47.71
2019-03-20T00:14:00.961Z,47.40
2019-03-20T00:15:00.944Z,47.30
2019-03-20T00:16:00.976Z,47.30
2019-03-20T00:17:00.926Z,47.61
2019-03-20T00:18:00.914Z,47.09
2019-03-20T00:19:00.904Z,47.09
2019-03-20T00:20:00.909Z,46.88
2019-03-20T00:21:00.885Z,46.86
2019-03-20T00:22:00.885Z,46.88
2019-03-20T00:23:00.861Z,46.96
2019-03-20T00:24:00.878Z,46.88
2019-03-20T00:25:00.841Z,46.86
2019-03-20T00:26:00.833Z,47.27
2019-03-20T00:27:00.821Z,46.88
2019-03-20T00:28:00.824Z,47.17
2019-03-20T00:29:00.800Z,46.57
2019-03-20T00:30:00.804Z,46.86
2019-03-20T05:00:37.276Z,46.57
2019-03-20T05:01:37.255Z,47.51
2019-03-20T05:02:37.237Z,47.30
2019-03-20T05:03:37.224Z,48.14
2019-03-20T05:04:37.223Z,48.01
2019-03-20T05:05:37.230Z,48.85
2019-03-20T05:06:37.198Z,48.33
2019-03-20T05:07:37.202Z,48.10
2019-03-20T05:08:37.177Z,48.43
2019-03-20T05:09:37.175Z,48.41
2019-03-20T05:10:37.158Z,47.57
2019-03-20T05:11:37.183Z,47.57
2019-03-20T05:12:37.140Z,47.45
2019-03-20T05:13:37.129Z,47.45
2019-03-20T05:14:37.117Z,46.82
2019-03-20T05:15:37.106Z,47.34
2019-03-20T05:16:37.107Z,47.55
2019-03-20T05:17:37.082Z,47.24
2019-03-20T05:18:37.076Z,46.80
2019-03-20T05:19:37.073Z,47.01
2019-03-20T05:20:37.050Z,47.01
2019-03-20T05:21:37.062Z,46.91
2019-03-20T05:22:37.034Z,46.70
2019-03-20T05:23:37.038Z,47.09
2019-03-20T05:24:37.016Z,47.40
2019-03-20T05:25:37.002Z,46.98
2019-03-20T05:26:36.986Z,47.30
2019-03-20T05:27:37.007Z,46.57
2019-03-20T05:28:36.974Z,46.47
2019-03-20T05:29:36.953Z,46.88
2019-03-20T05:30:36.952Z,46.88
2019-03-20T05:31:36.937Z,46.88
2019-03-20T05:32:37.016Z,46.78
2019-03-20T05:33:36.937Z,46.55
2019-03-20T05:34:36.908Z,46.76
2019-03-20T05:35:36.944Z,46.97
2019-03-20T05:36:36.889Z,47.07
2019-03-20T05:37:36.904Z,47.07
2019-03-20T05:38:36.861Z,46.55
2019-03-20T05:39:36.858Z,46.55
2019-03-20T05:40:36.837Z,46.53
2019-03-20T05:41:36.830Z,46.86
2019-03-20T05:42:36.824Z,46.55
2019-03-20T05:43:36.823Z,46.63
2019-03-20T05:44:36.839Z,46.94
2019-03-20T05:45:36.806Z,46.22
2019-03-20T05:46:36.779Z,45.90
2019-03-20T05:47:36.778Z,46.01
2019-03-20T05:48:36.770Z,45.98
2019-03-20T05:49:36.745Z,45.78
2019-03-20T05:50:36.737Z,45.67
2019-03-20T05:51:36.728Z,45.88
2019-03-20T05:52:36.715Z,46.19
2019-03-20T05:53:36.716Z,45.55
2019-03-20T05:54:36.707Z,46.38
2019-03-20T05:55:36.684Z,45.03
2019-03-20T05:56:36.675Z,45.45
2019-03-20T05:57:36.667Z,45.32
2019-03-20T05:58:36.649Z,45.30
2019-03-20T05:59:36.654Z,45.17
2019-03-20T06:00:36.629Z,43.89
2019-03-20T06:01:36.627Z,43.10
2019-03-20T06:02:36.667Z,42.54
2019-03-20T06:03:36.626Z,41.58
2019-03-20T06:04:36.588Z,40.62
2019-03-20T06:05:36.577Z,40.80
2019-03-20T06:06:36.574Z,40.36
2019-03-20T06:07:36.582Z,38.98
2019-03-20T06:08:36.547Z,39.79
2019-03-20T06:09:36.535Z,38.95
2019-03-20T06:10:36.527Z,38.40
2019-03-20T06:11:36.541Z,38.15
2019-03-20T06:12:36.504Z,36.77
2019-03-20T06:13:36.486Z,36.32
2019-03-20T06:14:36.511Z,35.04
2019-03-20T06:15:36.475Z,35.11
2019-03-20T06:16:36.463Z,34.69
2019-03-20T06:17:36.477Z,35.28
2019-03-20T06:18:36.999Z,35.39
2019-03-20T06:19:36.426Z,36.14
2019-03-20T06:20:36.428Z,37.71
2019-03-20T06:21:36.401Z,39.07
2019-03-20T06:22:36.402Z,38.77
2019-03-20T06:23:36.388Z,39.14
2019-03-20T06:24:36.375Z,38.42
2019-03-20T06:25:36.373Z,38.18
2019-03-20T06:26:36.360Z,37.52
2019-03-20T06:27:36.368Z,36.46
2019-03-20T06:28:36.332Z,36.14
2019-03-20T06:29:36.321Z,36.44
2019-03-20T06:30:36.318Z,36.22
2019-03-20T06:31:36.299Z,36.02
2019-03-20T06:32:36.284Z,36.53
2019-03-20T06:33:36.312Z,35.90
2019-03-20T06:34:36.267Z,36.61
2019-03-20T06:35:36.259Z,35.88
2019-03-20T06:36:36.262Z,35.99
2019-03-20T06:37:36.234Z,36.80
2019-03-20T06:38:36.221Z,36.27
2019-03-20T06:39:36.229Z,35.22
2019-03-20T06:40:36.202Z,34.97
2019-03-20T06:41:36.215Z,34.75
2019-03-20T06:42:36.202Z,34.43
2019-03-20T06:43:36.170Z,34.75
2019-03-20T06:44:36.160Z,35.61
2019-03-20T06:45:36.158Z,36.68
2019-03-20T06:46:36.540Z,38.46
2019-03-20T06:47:36.124Z,38.30
2019-03-20T06:48:36.115Z,39.14
2019-03-20T06:49:36.114Z,38.95
2019-03-20T06:50:36.108Z,39.69
2019-03-20T06:51:36.082Z,40.01
2019-03-20T06:52:36.086Z,40.44
2019-03-20T06:53:36.059Z,40.64
2019-03-20T06:54:36.060Z,40.33
2019-03-20T06:55:36.043Z,40.13
2019-03-20T06:56:36.029Z,40.25
2019-03-20T06:57:36.029Z,40.86
2019-03-20T06:58:36.009Z,40.76
2019-03-20T06:59:35.998Z,40.25
2019-03-20T07:00:35.999Z,40.99
2019-03-20T07:01:35.999Z,40.78
2019-03-20T07:02:35.962Z,40.58
2019-03-20T07:03:35.957Z,41.19
2019-03-20T07:04:35.943Z,40.27
2019-03-20T07:05:35.930Z,40.37
2019-03-20T07:06:35.939Z,41.00
2019-03-20T07:07:43.892Z,40.88
2019-03-20T07:08:36.908Z,41.31
2019-03-20T07:09:35.893Z,41.41
2019-03-20T07:10:35.883Z,41.31
2019-03-20T07:11:35.873Z,42.44
2019-03-20T07:12:35.874Z,42.03
2019-03-20T07:13:35.857Z,41.41
2019-03-20T07:14:35.837Z,41.23
2019-03-20T07:15:35.832Z,41.85
2019-03-20T07:16:35.816Z,41.95
2019-03-20T07:17:35.818Z,41.23
2019-03-20T07:18:35.799Z,42.05
2019-03-20T07:19:35.813Z,41.95
2019-03-20T07:20:35.786Z,41.46
2019-03-20T07:21:35.763Z,41.25
2019-03-20T07:22:35.771Z,42.27
2019-03-20T07:23:35.739Z,42.27
2019-03-20T07:24:35.743Z,42.17
2019-03-20T07:25:35.714Z,42.29
2019-03-20T07:26:35.709Z,41.76
2019-03-20T07:27:35.720Z,42.09
2019-03-20T07:28:35.690Z,41.58
2019-03-20T07:29:35.676Z,41.78
2019-03-20T07:30:35.670Z,41.78
2019-03-20T07:31:35.661Z,41.88
2019-03-20T07:32:35.648Z,41.68
2019-03-20T07:33:35.651Z,41.78
2019-03-20T07:34:35.618Z,41.68
2019-03-20T07:35:35.662Z,41.99
2019-03-20T07:36:43.455Z,41.99
2019-03-20T07:37:35.584Z,41.99
2019-03-20T07:38:35.596Z,42.00
2019-03-20T07:39:35.571Z,41.78
2019-03-20T07:40:35.557Z,41.99
2019-03-20T07:41:35.551Z,42.48
2019-03-20T07:42:35.532Z,42.81
2019-03-20T07:43:35.522Z,41.97
2019-03-20T07:44:35.525Z,41.66
2019-03-20T07:45:35.508Z,41.86
2019-03-20T07:46:35.496Z,42.15
2019-03-20T07:47:35.498Z,41.33
2019-03-20T07:48:35.480Z,41.64
2019-03-20T07:49:35.454Z,41.02
2019-03-20T07:50:35.451Z,41.13
2019-03-20T07:51:35.436Z,41.72
2019-03-20T07:52:35.430Z,42.13
2019-03-20T07:53:35.430Z,41.00
2019-03-20T07:54:35.404Z,41.29
2019-03-20T07:55:35.392Z,41.39
2019-03-20T07:56:35.387Z,41.60
2019-03-20T07:57:35.393Z,41.07
2019-03-20T07:58:35.374Z,40.66
2019-03-20T07:59:35.366Z,41.27
2019-03-20T08:00:35.333Z,41.27
2019-03-20T08:01:35.323Z,40.95
2019-03-20T08:02:35.323Z,40.33
2019-03-20T08:03:35.336Z,41.05
2019-03-20T08:04:35.303Z,40.33
2019-03-20T08:05:35.294Z,40.23
2019-03-20T08:06:35.268Z,40.11
2019-03-20T08:07:35.264Z,40.31
2019-03-20T08:08:35.264Z,40.31
2019-03-20T08:09:35.292Z,40.52
2019-03-20T08:10:35.249Z,40.11
2019-03-20T08:11:35.235Z,40.40
2019-03-20T08:12:35.209Z,40.81
2019-03-20T08:13:35.203Z,40.40
2019-03-20T08:14:35.186Z,40.08
2019-03-20T08:15:35.204Z,40.46
2019-03-20T08:16:35.167Z,40.16
2019-03-20T08:17:35.163Z,39.32
2019-03-20T08:18:35.143Z,39.73
2019-03-20T08:19:35.161Z,39.73
2019-03-20T08:20:35.132Z,39.53
2019-03-20T08:21:35.125Z,39.71
2019-03-20T08:22:35.121Z,39.71
2019-03-20T08:23:35.095Z,39.51
2019-03-20T08:24:35.112Z,39.40
2019-03-20T08:25:35.073Z,39.81
2019-03-20T08:26:35.073Z,40.53
2019-03-20T08:27:35.050Z,40.42
2019-03-20T08:28:35.040Z,40.24
2019-03-20T08:29:35.050Z,40.34
2019-03-20T08:30:35.019Z,40.34
2019-03-20T08:31:35.028Z,40.34
2019-03-20T08:32:34.997Z,40.24
2019-03-20T08:33:34.983Z,40.34
2019-03-20T08:34:35.006Z,40.55
2019-03-20T08:35:34.964Z,40.32
2019-03-20T08:36:34.971Z,40.12
2019-03-20T08:37:34.960Z,40.42
2019-03-20T08:38:34.929Z,40.61
2019-03-20T08:39:34.920Z,40.10
2019-03-20T08:40:34.910Z,39.90
2019-03-20T08:41:34.897Z,40.08
2019-03-20T08:42:34.906Z,40.10
2019-03-20T08:43:34.881Z,39.78
2019-03-20T08:44:34.869Z,39.67
2019-03-20T08:45:34.872Z,39.87
2019-03-20T08:46:34.843Z,40.28
2019-03-20T08:47:34.849Z,40.28
2019-03-20T08:48:34.848Z,40.10
2019-03-20T08:49:34.814Z,40.30
2019-03-20T08:50:34.807Z,40.30
2019-03-20T08:51:34.792Z,40.28
2019-03-20T08:52:34.789Z,40.30
2019-03-20T08:53:34.785Z,39.90
2019-03-20T08:54:34.764Z,40.00
2019-03-20T08:55:34.764Z,40.51
2019-03-20T08:56:34.738Z,40.41
2019-03-20T08:57:34.731Z,40.59
2019-03-20T08:58:34.733Z,40.61
2019-03-20T08:59:34.709Z,40.28
2019-03-20T09:00:34.698Z,40.59
2019-03-20T09:01:34.687Z,39.98
2019-03-20T09:02:34.686Z,40.59
2019-03-20T09:03:34.683Z,40.39
2019-03-20T09:04:35.761Z,40.26
2019-03-20T09:05:34.639Z,40.47
2019-03-20T09:06:34.633Z,39.76
2019-03-20T09:07:34.624Z,40.47
2019-03-20T09:08:34.609Z,40.14
2019-03-20T09:09:34.640Z,39.43
2019-03-20T09:10:34.611Z,39.31
2019-03-20T09:11:34.575Z,39.70
2019-03-20T09:12:34.567Z,38.58
2019-03-20T09:13:34.553Z,39.09
2019-03-20T09:14:34.568Z,38.89
2019-03-20T09:15:34.557Z,39.07
2019-03-20T09:16:34.525Z,38.45
2019-03-20T09:17:34.515Z,39.15
2019-03-20T09:18:34.499Z,39.14
2019-03-20T09:19:34.507Z,38.73
2019-03-20T09:20:34.478Z,38.61
2019-03-20T09:21:34.475Z,38.70
2019-03-20T09:22:34.458Z,38.59
2019-03-20T09:23:34.467Z,38.07
2019-03-20T09:24:34.449Z,38.37
2019-03-20T09:25:34.445Z,38.56
2019-03-20T09:26:34.424Z,37.62
2019-03-20T09:27:34.409Z,37.61
2019-03-20T09:28:34.402Z,37.89
2019-03-20T09:29:36.205Z,37.69
2019-03-20T09:30:34.381Z,37.29
2019-03-20T09:31:34.362Z,37.47
2019-03-20T09:32:34.348Z,36.65
2019-03-20T09:33:34.382Z,37.25
2019-03-20T09:34:34.347Z,37.03
2019-03-20T09:35:34.346Z,37.03
2019-03-20T09:36:42.790Z,37.03
2019-03-20T09:37:35.293Z,36.71
2019-03-20T09:38:42.962Z,37.01
2019-03-20T09:39:35.273Z,36.99
2019-03-20T09:40:34.371Z,36.69
2019-03-20T09:41:34.252Z,36.90
2019-03-20T09:42:34.242Z,36.99
2019-03-20T09:43:34.231Z,36.99
2019-03-20T09:44:34.270Z,36.99
2019-03-20T09:45:34.222Z,36.77
2019-03-20T09:46:34.209Z,36.57
2019-03-20T09:47:34.195Z,36.88
2019-03-20T09:48:34.175Z,36.98
2019-03-20T09:49:34.165Z,37.38
2019-03-20T09:50:34.183Z,37.38
2019-03-20T09:51:34.164Z,37.18
2019-03-20T09:52:34.133Z,37.37
2019-03-20T09:53:34.118Z,37.37
2019-03-20T09:54:34.137Z,37.45
2019-03-20T09:55:34.103Z,37.15
2019-03-20T09:56:34.091Z,37.16
2019-03-20T09:57:34.108Z,37.35
2019-03-20T09:58:34.074Z,37.04
2019-03-20T09:59:34.060Z,37.35
2019-03-20T10:00:34.061Z,36.93
2019-03-20T10:01:34.061Z,36.52
2019-03-20T10:02:34.057Z,36.52
2019-03-20T10:03:34.016Z,36.61
2019-03-20T10:04:34.010Z,36.61
2019-03-20T10:05:34.010Z,36.91
2019-03-20T10:06:34.002Z,36.49
2019-03-20T10:07:33.993Z,37.21
2019-03-20T10:08:33.982Z,36.99
2019-03-20T10:09:33.964Z,37.29
2019-03-20T10:10:33.936Z,36.99
2019-03-20T10:11:33.930Z,37.31
2019-03-20T10:12:33.922Z,37.29
2019-03-20T10:13:33.950Z,37.40
2019-03-20T10:14:33.906Z,37.29
2019-03-20T10:15:33.895Z,37.40
2019-03-20T10:16:33.877Z,37.40
2019-03-20T10:17:33.870Z,37.29
2019-03-20T10:18:33.876Z,37.29
2019-03-20T10:19:33.855Z,37.40
2019-03-20T10:20:33.832Z,37.29
2019-03-20T10:21:33.846Z,37.40
2019-03-20T10:22:33.855Z,37.31
2019-03-20T10:23:33.836Z,37.60
2019-03-20T10:24:33.791Z,37.62
2019-03-20T10:25:43.898Z,37.90
2019-03-20T10:26:34.775Z,37.90
2019-03-20T10:27:33.785Z,37.40
2019-03-20T10:28:33.754Z,37.60
2019-03-20T10:29:33.760Z,37.40
2019-03-20T10:30:33.728Z,37.60
2019-03-20T10:31:33.719Z,37.27
2019-03-20T10:32:33.709Z,37.27
2019-03-20T10:33:33.693Z,37.46
2019-03-20T10:34:39.486Z,37.76
2019-03-20T10:35:34.680Z,37.26
2019-03-20T10:36:33.669Z,37.04
2019-03-20T10:37:33.667Z,36.22
2019-03-20T10:38:33.640Z,36.42
2019-03-20T10:39:33.650Z,36.82
2019-03-20T10:40:33.638Z,36.62
2019-03-20T10:41:33.615Z,36.80
2019-03-20T10:42:33.598Z,36.30
2019-03-20T10:43:33.588Z,37.21
2019-03-20T10:44:33.609Z,36.80
2019-03-20T10:45:33.597Z,36.80
2019-03-20T10:46:33.574Z,37.01
2019-03-20T10:47:33.561Z,37.21
2019-03-20T10:48:33.534Z,37.01
2019-03-20T10:49:33.543Z,37.21
2019-03-20T10:50:33.552Z,37.41
2019-03-20T10:51:33.504Z,37.61
2019-03-20T10:52:33.655Z,37.81
2019-03-20T10:53:33.476Z,37.30
2019-03-20T10:54:33.516Z,37.21
2019-03-20T10:55:33.457Z,37.41
2019-03-20T10:56:33.460Z,37.30
2019-03-20T10:57:33.430Z,37.39
2019-03-20T10:58:33.424Z,37.99
2019-03-20T10:59:33.412Z,37.69
2019-03-20T11:00:33.398Z,37.19
2019-03-20T11:01:42.066Z,36.89
2019-03-20T11:02:34.376Z,37.19
2019-03-20T11:03:33.366Z,36.99
2019-03-20T11:04:33.402Z,37.17
2019-03-20T11:05:33.339Z,37.07
2019-03-20T11:06:33.344Z,36.77
2019-03-20T11:07:33.340Z,36.77
2019-03-20T11:08:33.313Z,36.95
2019-03-20T11:09:33.317Z,36.95
2019-03-20T11:10:33.289Z,36.45
2019-03-20T11:11:33.308Z,36.55
2019-03-20T11:12:33.266Z,36.75
2019-03-20T11:13:33.289Z,37.05
2019-03-20T11:14:33.237Z,36.35
2019-03-20T11:15:33.237Z,37.05
2019-03-20T11:16:33.233Z,37.04
2019-03-20T11:17:33.220Z,37.15
2019-03-20T11:18:33.200Z,36.95
2019-03-20T11:19:33.225Z,37.76
2019-03-20T11:20:33.180Z,37.35
2019-03-20T11:21:33.170Z,37.27
2019-03-20T11:22:33.170Z,37.37
2019-03-20T11:23:33.144Z,37.57
2019-03-20T11:24:33.146Z,37.46
2019-03-20T11:25:33.121Z,37.26
2019-03-20T11:26:33.143Z,37.26
2019-03-20T11:27:33.540Z,37.57
2019-03-20T11:28:33.105Z,37.46
2019-03-20T11:29:33.079Z,37.15
2019-03-20T11:30:33.107Z,37.15
2019-03-20T11:31:33.058Z,37.46
2019-03-20T11:32:33.046Z,37.35
2019-03-20T11:33:33.053Z,37.15
2019-03-20T11:34:33.021Z,37.15
2019-03-20T11:35:33.015Z,37.04
2019-03-20T11:36:33.000Z,37.13
2019-03-20T11:37:33.026Z,37.42
2019-03-20T11:38:33.002Z,37.52
2019-03-20T11:39:32.989Z,37.00
2019-03-20T11:40:32.962Z,36.70
2019-03-20T11:41:32.971Z,36.90
2019-03-20T11:42:32.955Z,36.30
2019-03-20T11:43:32.927Z,36.98
2019-03-20T11:44:32.919Z,36.88
2019-03-20T11:45:32.909Z,36.68
2019-03-20T11:46:32.912Z,36.28
2019-03-20T11:47:32.883Z,36.90
2019-03-20T11:48:33.512Z,37.40
2019-03-20T11:49:32.884Z,37.00
2019-03-20T11:50:32.854Z,36.90
2019-03-20T11:51:32.842Z,37.10
2019-03-20T11:52:32.850Z,37.10
2019-03-20T11:53:32.825Z,37.10
2019-03-20T11:54:32.803Z,37.08
2019-03-20T11:55:32.844Z,37.28
2019-03-20T11:56:32.786Z,37.38
2019-03-20T11:57:32.773Z,37.80
2019-03-20T11:58:32.768Z,37.80
2019-03-20T11:59:32.757Z,38.02
2019-03-20T12:00:32.828Z,37.82
2019-03-20T12:01:32.733Z,37.94
2019-03-20T12:02:32.725Z,38.14
2019-03-20T12:03:32.710Z,38.44
2019-03-20T12:04:32.700Z,38.64
2019-03-20T12:05:32.707Z,38.46
2019-03-20T12:06:32.675Z,38.24
2019-03-20T12:07:32.692Z,38.66
2019-03-20T12:08:32.657Z,38.26
2019-03-20T12:09:40.790Z,38.46
2019-03-20T12:10:33.662Z,38.56
2019-03-20T12:11:32.644Z,38.64
2019-03-20T12:12:32.615Z,38.74
2019-03-20T12:13:32.609Z,38.76
2019-03-20T12:14:32.599Z,38.04
2019-03-20T12:15:32.582Z,38.24
2019-03-20T12:16:32.585Z,37.92
2019-03-20T12:17:32.562Z,37.92
2019-03-20T12:18:32.544Z,37.82
2019-03-20T12:19:32.534Z,37.70
2019-03-20T12:20:32.524Z,37.70
2019-03-20T12:21:32.526Z,38.00
2019-03-20T12:22:32.522Z,37.90
2019-03-20T12:23:33.751Z,37.40
2019-03-20T12:24:32.484Z,37.59
2019-03-20T12:25:32.477Z,37.50
2019-03-20T12:26:32.477Z,37.60
2019-03-20T12:27:32.457Z,37.60
2019-03-20T12:28:32.453Z,38.00
2019-03-20T12:29:32.426Z,38.53
2019-03-20T12:30:32.455Z,38.54
2019-03-20T12:31:32.426Z,38.24
2019-03-20T12:32:32.400Z,38.24
2019-03-20T12:33:32.381Z,38.36
2019-03-20T12:34:32.379Z,38.16
2019-03-20T12:35:32.364Z,38.28
2019-03-20T12:36:32.384Z,38.79
2019-03-20T12:37:32.343Z,39.10
2019-03-20T12:38:32.330Z,40.00
2019-03-20T12:39:32.317Z,39.20
2019-03-20T12:40:32.307Z,40.00
2019-03-20T12:41:32.315Z,38.49
2019-03-20T12:42:32.320Z,39.50
2019-03-20T12:43:32.277Z,39.00
2019-03-20T12:44:32.269Z,39.10
2019-03-20T12:45:32.258Z,38.90
2019-03-20T12:46:41.399Z,38.88
2019-03-20T12:47:33.250Z,38.38
2019-03-20T12:48:32.230Z,38.56
2019-03-20T12:49:32.217Z,38.26
2019-03-20T12:50:32.203Z,38.38
2019-03-20T12:51:32.190Z,38.38
2019-03-20T12:52:32.180Z,38.28
2019-03-20T12:53:32.181Z,38.98
2019-03-20T12:54:32.177Z,39.28
2019-03-20T12:55:32.155Z,38.26
2019-03-20T12:56:32.155Z,38.76
2019-03-20T12:57:32.129Z,38.26
2019-03-20T12:58:32.112Z,38.64
2019-03-20T12:59:32.129Z,38.54
2019-03-20T13:00:32.098Z,38.44
2019-03-20T13:01:32.078Z,37.84
2019-03-20T13:02:32.079Z,38.56
2019-03-20T13:03:32.061Z,38.96
2019-03-20T13:04:32.083Z,38.98
2019-03-20T13:05:32.035Z,39.50
2019-03-20T13:06:32.031Z,39.90
2019-03-20T13:07:32.019Z,39.70
2019-03-20T13:08:32.013Z,39.70
2019-03-20T13:09:32.011Z,40.00
2019-03-20T13:10:32.011Z,40.00
2019-03-20T13:11:31.972Z,40.00
2019-03-20T13:12:31.960Z,40.00
2019-03-20T13:13:31.965Z,39.20
2019-03-20T13:14:31.959Z,39.20
2019-03-20T13:15:33.493Z,38.70
2019-03-20T13:16:31.922Z,39.60
2019-03-20T13:17:31.924Z,39.62
2019-03-20T13:18:31.978Z,39.22
2019-03-20T13:19:31.887Z,39.52
2019-03-20T13:20:31.911Z,39.72
2019-03-20T13:21:31.869Z,39.62
2019-03-20T13:22:31.850Z,39.70
2019-03-20T13:23:31.845Z,39.10
2019-03-20T13:24:31.838Z,38.88
2019-03-20T13:25:31.819Z,39.08
2019-03-20T13:26:31.852Z,39.18
2019-03-20T13:27:33.880Z,38.78
2019-03-20T13:28:31.794Z,38.78
2019-03-20T13:29:31.783Z,39.16
2019-03-20T13:30:31.766Z,38.76
2019-03-20T13:31:31.771Z,39.06
2019-03-20T13:32:31.747Z,39.06
2019-03-20T13:33:31.732Z,38.86
2019-03-20T13:34:31.729Z,38.96
2019-03-20T13:35:31.736Z,38.86
2019-03-20T13:36:31.718Z,39.47
2019-03-20T13:37:31.690Z,38.76
2019-03-20T13:38:31.689Z,38.66
2019-03-20T13:39:31.678Z,38.66
2019-03-20T13:40:31.698Z,38.96
2019-03-20T13:41:31.668Z,38.86
2019-03-20T13:42:31.645Z,38.76
2019-03-20T13:43:31.653Z,38.96
2019-03-20T13:44:31.617Z,39.16
2019-03-20T13:45:31.609Z,38.96
2019-03-20T13:46:31.618Z,39.06
2019-03-20T13:47:31.585Z,39.16
2019-03-20T13:48:31.592Z,39.06
2019-03-20T13:49:31.570Z,39.16
2019-03-20T13:50:31.563Z,39.97
2019-03-20T13:51:31.559Z,39.16
2019-03-20T13:52:31.534Z,38.56
2019-03-20T13:53:31.523Z,39.48
2019-03-20T13:54:31.521Z,39.69
2019-03-20T13:55:31.498Z,39.28
2019-03-20T13:56:31.512Z,39.28
2019-03-20T13:57:31.472Z,39.48
2019-03-20T13:58:31.467Z,39.58
2019-03-20T13:59:31.458Z,39.38
2019-03-20T14:00:31.449Z,39.58
2019-03-20T14:01:31.432Z,39.88
2019-03-20T14:02:31.438Z,39.28
2019-03-20T14:03:31.418Z,39.20
2019-03-20T14:04:31.415Z,40.20
2019-03-20T14:05:31.391Z,40.61
2019-03-20T14:06:31.424Z,40.41
2019-03-20T14:07:31.431Z,40.70
2019-03-20T14:08:31.361Z,40.53
2019-03-20T14:09:31.370Z,40.42
2019-03-20T14:10:31.342Z,40.55
2019-03-20T14:11:31.330Z,40.24
2019-03-20T14:12:33.469Z,40.42
2019-03-20T14:13:31.304Z,40.55
2019-03-20T14:14:31.292Z,40.04
2019-03-20T14:15:31.279Z,41.05
2019-03-20T14:16:31.268Z,40.95
2019-03-20T14:17:31.279Z,40.84
2019-03-20T14:18:31.250Z,40.55
2019-03-20T14:19:31.245Z,40.64
2019-03-20T14:20:31.232Z,40.84
2019-03-20T14:21:31.270Z,40.55
2019-03-20T14:22:31.219Z,40.95
2019-03-20T14:23:31.191Z,40.95
2019-03-20T14:24:31.203Z,40.86
2019-03-20T14:25:31.174Z,40.84
2019-03-20T14:26:31.160Z,40.44
2019-03-20T14:27:31.147Z,40.84
2019-03-20T14:28:31.154Z,39.94
2019-03-20T14:29:31.142Z,40.34
2019-03-20T14:30:31.122Z,40.55
2019-03-20T14:31:31.124Z,40.44
2019-03-20T14:32:31.119Z,40.44
2019-03-20T14:33:31.102Z,40.14
2019-03-20T14:34:31.080Z,40.34
2019-03-20T14:35:31.081Z,40.55
2019-03-20T14:36:31.051Z,40.64
2019-03-20T14:37:31.071Z,40.97
2019-03-20T14:38:31.048Z,40.86
2019-03-20T14:39:31.045Z,41.06
2019-03-20T14:40:36.233Z,41.17
2019-03-20T14:41:31.999Z,41.47
2019-03-20T14:42:31.007Z,41.49
2019-03-20T14:43:30.983Z,41.09
2019-03-20T14:44:31.003Z,41.69
2019-03-20T14:45:30.959Z,41.39
2019-03-20T14:46:30.944Z,41.19
2019-03-20T14:47:30.932Z,40.69
2019-03-20T14:48:30.953Z,40.78
2019-03-20T14:49:30.926Z,41.11
2019-03-20T14:50:30.914Z,41.20
2019-03-20T14:51:30.896Z,41.20
2019-03-20T14:52:30.884Z,41.20
2019-03-20T14:53:30.890Z,41.00
2019-03-20T14:54:30.858Z,41.11
2019-03-20T14:55:30.855Z,41.00
2019-03-20T14:56:30.851Z,41.31
2019-03-20T14:57:30.829Z,41.11
2019-03-20T14:58:30.816Z,41.20
2019-03-20T14:59:30.819Z,41.63
2019-03-20T15:00:30.794Z,41.63
2019-03-20T15:01:30.789Z,41.83
2019-03-20T15:02:30.775Z,41.33
2019-03-20T15:03:30.782Z,41.22
2019-03-20T15:04:30.776Z,41.63
2019-03-20T15:05:30.746Z,41.83
2019-03-20T15:06:30.733Z,41.22
2019-03-20T15:07:30.759Z,41.22
2019-03-20T15:08:30.729Z,41.22
2019-03-20T15:09:30.694Z,41.11
2019-03-20T15:10:30.706Z,41.41
2019-03-20T15:11:30.679Z,41.22
2019-03-20T15:12:30.659Z,40.91
2019-03-20T15:13:30.668Z,41.63
2019-03-20T15:14:30.686Z,41.13
2019-03-20T15:15:30.634Z,41.63
2019-03-20T15:16:30.626Z,41.13
2019-03-20T15:17:30.619Z,40.82
2019-03-20T15:18:30.613Z,40.92
2019-03-20T15:19:30.622Z,41.22
2019-03-20T15:20:30.576Z,41.22
2019-03-20T15:21:30.567Z,40.82
2019-03-20T15:22:30.565Z,40.82
2019-03-20T15:23:30.571Z,40.82
2019-03-20T15:24:30.560Z,41.65
2019-03-20T15:25:30.523Z,41.75
2019-03-20T15:26:30.510Z,41.25
2019-03-20T15:27:30.513Z,41.85
2019-03-20T15:28:30.495Z,42.27
2019-03-20T15:29:30.479Z,41.97
2019-03-20T15:30:30.481Z,42.18
2019-03-20T15:31:30.453Z,41.87
2019-03-20T15:32:30.458Z,41.89
2019-03-20T15:33:30.443Z,41.89
2019-03-20T15:34:30.424Z,42.19
2019-03-20T15:35:30.416Z,42.19
2019-03-20T15:36:30.427Z,42.70
2019-03-20T15:37:30.390Z,42.01
2019-03-20T15:38:30.380Z,42.82
2019-03-20T15:39:30.371Z,43.24
2019-03-20T15:40:30.355Z,43.44
2019-03-20T15:41:30.346Z,42.64
2019-03-20T15:42:30.367Z,42.43
2019-03-20T15:43:30.326Z,42.86
2019-03-20T15:44:30.310Z,43.46
2019-03-20T15:45:30.309Z,42.55
2019-03-20T15:46:30.306Z,43.59
2019-03-20T15:47:30.300Z,43.69
2019-03-20T15:48:30.288Z,43.79
2019-03-20T15:49:30.261Z,43.69
2019-03-20T15:50:30.248Z,43.69
2019-03-20T15:51:30.254Z,43.69
2019-03-20T15:52:30.237Z,43.71
2019-03-20T15:53:30.217Z,43.71
2019-03-20T15:54:30.203Z,43.51
2019-03-20T15:55:30.193Z,43.91
2019-03-20T15:56:30.181Z,43.91
2019-03-20T15:57:30.182Z,43.29
2019-03-20T15:58:30.164Z,43.20
2019-03-20T15:59:30.142Z,43.41
2019-03-20T16:00:30.153Z,43.61
2019-03-20T16:01:30.122Z,43.41
2019-03-20T16:02:30.667Z,43.61
2019-03-20T16:03:30.098Z,43.52
2019-03-20T16:04:30.087Z,43.91
2019-03-20T16:05:30.075Z,43.93
2019-03-20T16:06:30.067Z,44.03
2019-03-20T16:07:30.087Z,43.93
2019-03-20T16:08:30.045Z,42.82
2019-03-20T16:09:30.035Z,43.04
2019-03-20T16:10:30.049Z,44.26
2019-03-20T16:11:30.030Z,44.36
2019-03-20T16:12:30.012Z,43.65
2019-03-20T16:13:29.990Z,43.75
2019-03-20T16:14:30.004Z,44.06
2019-03-20T16:15:29.966Z,43.37
2019-03-20T16:16:29.980Z,43.98
2019-03-20T16:17:29.963Z,43.47
2019-03-20T16:18:29.930Z,43.37
2019-03-20T16:19:29.934Z,43.37
2019-03-20T16:20:29.921Z,44.27
2019-03-20T16:21:29.897Z,43.77
2019-03-20T16:22:29.883Z,43.79
2019-03-20T16:23:29.886Z,44.18
2019-03-20T16:24:29.876Z,44.38
2019-03-20T16:25:29.852Z,43.87
2019-03-20T16:26:29.841Z,43.98
2019-03-20T16:27:29.835Z,43.89
2019-03-20T16:28:29.841Z,43.99
2019-03-20T16:29:29.822Z,43.99
2019-03-20T16:30:29.804Z,43.89
2019-03-20T16:31:29.781Z,43.49
2019-03-20T16:32:29.779Z,43.51
2019-03-20T16:33:29.762Z,44.12
2019-03-20T16:34:29.768Z,44.01
2019-03-20T16:35:29.752Z,44.01
2019-03-20T16:36:29.771Z,44.44
2019-03-20T16:37:29.719Z,43.84
2019-03-20T16:38:29.732Z,44.85
2019-03-20T16:39:29.730Z,44.04
2019-03-20T16:40:29.685Z,44.74
2019-03-20T16:41:29.675Z,44.67
2019-03-20T16:42:29.675Z,45.07
2019-03-20T16:43:29.649Z,44.56
2019-03-20T16:44:29.736Z,44.56
2019-03-20T16:45:29.650Z,44.77
2019-03-20T16:46:29.622Z,44.77
2019-03-20T16:47:29.618Z,44.36
2019-03-20T16:48:29.596Z,44.67
2019-03-20T16:49:29.618Z,44.87
2019-03-20T16:50:29.577Z,44.87
2019-03-20T16:51:29.570Z,45.50
2019-03-20T16:52:29.558Z,44.89
2019-03-20T16:53:29.545Z,45.40
2019-03-20T16:54:29.533Z,45.83
2019-03-20T16:55:29.560Z,45.83
2019-03-20T16:56:29.510Z,45.52
2019-03-20T16:57:29.500Z,45.42
2019-03-20T16:58:29.491Z,45.52
2019-03-20T16:59:29.483Z,45.24
2019-03-20T17:00:29.520Z,45.32
2019-03-20T17:01:29.481Z,45.44
2019-03-20T17:02:29.451Z,45.84
2019-03-20T17:03:29.448Z,45.87
2019-03-20T17:04:29.443Z,45.46
2019-03-20T17:05:29.419Z,45.46
2019-03-20T17:06:29.420Z,45.44
2019-03-20T17:07:29.408Z,45.67
2019-03-20T17:08:29.381Z,45.97
2019-03-20T17:09:29.371Z,45.36
2019-03-20T17:10:29.371Z,45.76
2019-03-20T17:11:38.059Z,45.26
2019-03-20T17:12:30.341Z,45.15
2019-03-20T17:13:29.329Z,46.09
2019-03-20T17:14:29.317Z,46.09
2019-03-20T17:15:29.308Z,46.30
2019-03-20T17:16:29.306Z,46.30
2019-03-20T17:17:29.283Z,46.20
2019-03-20T17:18:29.277Z,46.20
2019-03-20T17:19:29.267Z,46.22
2019-03-20T17:20:29.275Z,46.11
2019-03-20T17:21:29.258Z,46.32